This is the latest recevied weather packets stored in our database for station/object IK1PCD-11. If no packets are shown the sender has not sent any weather packets the latest 10 day(s).
| Time | Temp. | Humidity | Pressure | Rain* | Wind** | Luminosity | Snow |
|---|---|---|---|---|---|---|---|
| 1778003890 | 10° C | 88% | 1012.4 hPa | - | - | - | - |
| 1778002990 | 10° C | 88% | 1012.3 hPa | - | - | - | - |
| 1778002090 | 10.56° C | 87% | 1012.2 hPa | - | - | - | - |
| 1778001189 | 11.67° C | 82% | 1012.2 hPa | - | - | - | - |
| 1778000289 | 12.22° C | 79% | 1012 hPa | - | - | - | - |
| 1777999389 | 11.67° C | 87% | 1012.1 hPa | - | - | - | - |
| 1777996689 | 12.22° C | 85% | 1012.4 hPa | - | - | - | - |
| 1777995789 | 11.11° C | 85% | 1012.5 hPa | - | - | - | - |
| 1777994889 | 11.67° C | 87% | 1012.4 hPa | - | - | - | - |
| 1777993989 | 12.22° C | 84% | 1012.4 hPa | - | - | - | - |
| 1777993089 | 12.78° C | 84% | 1012.4 hPa | - | - | - | - |
| 1777992188 | 11.67° C | 86% | 1012.3 hPa | - | - | - | - |
| 1777991288 | 12.78° C | 82% | 1012.5 hPa | - | - | - | - |
| 1777990388 | 12.22° C | 84% | 1012.4 hPa | - | - | - | - |
| 1777989488 | 11.67° C | 88% | 1012.4 hPa | - | - | - | - |
| 1777988588 | 11.67° C | 92% | 1012.4 hPa | - | - | - | - |
| 1777987688 | 11.67° C | 86% | 1012.5 hPa | - | - | - | - |
| 1777986788 | 11.67° C | 91% | 1012.5 hPa | - | - | - | - |
| 1777985888 | 12.78° C | 93% | 1012.5 hPa | - | - | - | - |
| 1777984987 | 13.33° C | 90% | 1012.4 hPa | - | - | - | - |
| 1777984086 | 11.67° C | 97% | 1012.4 hPa | - | - | - | - |
| 1777982290 | 11.11° C | 100% | 1012.5 hPa | - | - | - | - |
| 1777981390 | 11.67° C | 99% | 1012.3 hPa | - | - | - | - |
| 1777980490 | 11.67° C | 100% | 1012.3 hPa | - | - | - | - |
| 1777979590 | 11.11° C | 100% | 1012.2 hPa | - | - | - | - |
* Rain since midnight (hover to see other rain measurements)
** Current wind speed in m/s (hover to see current wind gust speed)